Terminal Aerodrome Forecast
Issued by NWS

Home | Current Version | Previous Version | Text Only | Print | Product List | Glossary On
Versions: 1 2 3 4 5 6 7 8 9 10 11 12 13 14 15 16 17 18 19 20 21 22 23 24 25 26 27 28 29 30
000
FTUS46 KLOX 251400 AAA
TAFLAX
TAF AMD
KLAX 251451Z 2515/2618 35015G25KT P6SM FEW070
     FM251600 33012KT P6SM SKC
     FM252100 28012KT P6SM SKC
     FM260400 35009KT P6SM SKC
     FM261600 VRB03KT P6SM SKC=

USA.gov is the U.S. government's official web portal to all federal, state and local government web resources and services.